Terminal Aerodrome Forecast
Issued by NWS

Home | Current Version | Previous Version | Text Only | Print | Product List | Glossary On
Versions: 1 2 3 4 5 6 7 8 9 10 11 12 13 14 15 16 17 18 19 20 21
714
FTUS46 KMTR 310534
TAFSTS
TAF
KSTS 310534Z 3106/0106 16004KT P6SM BKN005
     FM310800 VRB03KT 6SM BR OVC003
     FM311300 00000KT 1/2SM FG VV002
     FM311500 00000KT 6SM BR BKN004
     FM311700 17003KT P6SM FEW006
     FM312100 17008KT P6SM SKC
     FM010500 16004KT P6SM BKN005=

USA.gov is the U.S. government's official web portal to all federal, state and local government web resources and services.